createdAt,value
2022-08-20T00:00:14.211Z,101018.69
2022-08-20T00:02:45.931Z,101023.34
2022-08-20T00:05:13.345Z,101015.69
2022-08-20T00:07:39.978Z,101006.38
2022-08-20T00:10:06.991Z,101005.91
2022-08-20T00:12:34.285Z,101003.81
2022-08-20T00:15:00.921Z,101013.72
2022-08-20T00:17:28.522Z,101010.53
2022-08-20T00:19:55.013Z,101007.78
2022-08-20T00:22:21.458Z,101003.97
2022-08-20T00:24:47.907Z,101000.13
2022-08-20T00:27:14.338Z,101015.59
2022-08-20T00:29:40.757Z,101003.75
2022-08-20T00:32:07.338Z,101005.44
2022-08-20T00:34:33.761Z,101010.94
2022-08-20T00:37:00.449Z,101004.59
2022-08-20T00:39:26.967Z,101007.94
2022-08-20T00:41:53.457Z,101002.44
2022-08-20T00:44:22.024Z,101000.75
2022-08-20T00:46:49.124Z,101002.44
2022-08-20T00:49:17.615Z,100995.84
2022-08-20T00:51:46.766Z,100992.25
2022-08-20T00:54:19.059Z,100997.78
2022-08-20T00:56:47.062Z,101002.69
2022-08-20T00:59:16.461Z,100998.00
2022-08-20T01:01:54.904Z,100999.09
2022-08-20T01:04:23.227Z,100999.09
2022-08-20T01:06:49.722Z,101001.00
2022-08-20T01:09:16.253Z,100997.16
2022-08-20T01:11:42.821Z,100999.94
2022-08-20T01:14:29.982Z,101001.59
2022-08-20T01:16:59.597Z,101003.50
2022-08-20T01:19:30.348Z,100996.94
2022-08-20T01:21:57.478Z,100998.84
2022-08-20T01:24:34.427Z,100996.34
2022-08-20T01:27:03.959Z,101007.94
2022-08-20T01:29:35.025Z,101002.69
2022-08-20T01:32:02.374Z,101001.59
2022-08-20T01:34:29.388Z,100998.00
2022-08-20T01:36:57.494Z,100999.69
2022-08-20T01:39:25.759Z,101006.88
2022-08-20T01:42:00.509Z,101009.63
2022-08-20T01:44:27.306Z,101010.25
2022-08-20T01:46:57.585Z,101014.91
2022-08-20T01:49:24.366Z,101013.84
2022-08-20T01:51:52.238Z,101028.44
2022-08-20T01:54:18.718Z,101020.44
2022-08-20T01:57:05.877Z,101027.59
2022-08-20T01:59:32.577Z,101032.50
2022-08-20T02:02:00.225Z,101025.94
2022-08-20T02:04:27.083Z,101036.09
2022-08-20T02:06:56.598Z,101036.53
2022-08-20T02:09:25.558Z,101034.88
2022-08-20T02:11:53.413Z,101032.72
2022-08-20T02:14:20.272Z,101036.53
2022-08-20T02:16:54.737Z,101032.13
2022-08-20T02:19:27.817Z,101038.22
2022-08-20T02:21:56.937Z,101036.53
2022-08-20T02:24:23.429Z,101037.63
2022-08-20T02:26:50.445Z,101043.97
2022-08-20T02:29:16.950Z,101044.81
2022-08-20T02:32:26.240Z,101042.88
2022-08-20T02:34:31.152Z,101044.56
2022-08-20T02:36:57.640Z,101045.41
2022-08-20T02:39:24.889Z,101046.28
2022-08-20T02:41:51.342Z,101040.78
2022-08-20T02:44:20.522Z,101042.44
2022-08-20T02:46:48.238Z,101039.69
2022-08-20T02:49:14.714Z,101047.13
2022-08-20T02:51:41.179Z,101049.03
2022-08-20T02:54:07.597Z,101044.56
2022-08-20T02:56:34.218Z,101042.66
2022-08-20T02:59:00.738Z,101040.97
2022-08-20T03:01:27.701Z,101042.66
2022-08-20T03:03:57.249Z,101039.91
2022-08-20T03:06:23.843Z,101032.72
2022-08-20T03:08:50.361Z,101039.91
2022-08-20T03:11:17.345Z,101038.00
2022-08-20T03:13:43.826Z,101037.16
2022-08-20T03:16:10.470Z,101029.97
2022-08-20T03:18:39.094Z,101030.81
2022-08-20T03:21:06.679Z,101040.97
2022-08-20T03:23:38.077Z,101034.63
2022-08-20T03:26:08.130Z,101038.47
2022-08-20T03:28:35.246Z,101035.72
2022-08-20T03:31:01.990Z,101021.94
2022-08-20T03:33:28.662Z,101023.84
2022-08-20T03:35:55.137Z,101032.31
2022-08-20T03:38:32.250Z,101029.56
2022-08-20T03:40:59.348Z,101037.81
2022-08-20T03:43:25.795Z,101028.72
2022-08-20T03:45:52.390Z,101033.41
2022-08-20T03:48:19.802Z,101028.97
2022-08-20T03:50:47.006Z,101032.56
2022-08-20T03:53:14.664Z,101023.22
2022-08-20T03:55:42.543Z,101012.66
2022-08-20T03:58:13.426Z,101019.25
2022-08-20T04:00:49.066Z,101023.91
2022-08-20T04:03:16.038Z,101030.25
2022-08-20T04:05:43.642Z,101035.75
2022-08-20T04:08:12.445Z,101030.88
2022-08-20T04:10:39.239Z,101024.53
2022-08-20T04:13:06.981Z,101035.31
2022-08-20T04:15:35.481Z,101034.66
2022-08-20T04:18:06.213Z,101038.06
2022-08-20T04:20:33.520Z,101040.81
2022-08-20T04:23:02.526Z,101044.41
2022-08-20T04:25:31.166Z,101042.50
2022-08-20T04:28:03.429Z,101037.00
2022-08-20T04:30:30.341Z,101035.31
2022-08-20T04:32:56.824Z,101037.00
2022-08-20T04:35:24.615Z,101039.75
2022-08-20T04:37:57.664Z,101037.81
2022-08-20T04:40:42.935Z,101038.66
2022-08-20T04:43:10.132Z,101041.66
2022-08-20T04:45:39.098Z,101038.06
2022-08-20T04:48:06.842Z,101041.06
2022-08-20T04:50:36.370Z,101034.66
2022-08-20T04:53:04.501Z,101040.19
2022-08-20T04:55:31.465Z,101035.53
2022-08-20T04:58:07.946Z,101043.81
2022-08-20T05:00:34.580Z,101044.84
2022-08-20T05:03:01.266Z,101046.16
2022-08-20T05:05:28.071Z,101045.31
2022-08-20T05:07:55.580Z,101046.16
2022-08-20T05:10:23.635Z,101029.00
2022-08-20T05:12:56.782Z,101041.69
2022-08-20T05:15:24.634Z,101040.84
2022-08-20T05:17:54.916Z,101051.88
2022-08-20T05:20:21.539Z,101045.53
2022-08-20T05:22:48.082Z,101055.69
2022-08-20T05:25:14.695Z,101058.69
2022-08-20T05:27:47.302Z,101059.13
2022-08-20T05:30:14.268Z,101059.13
2022-08-20T05:32:44.717Z,101066.28
2022-08-20T05:35:11.936Z,101069.88
2022-08-20T05:37:40.456Z,101070.72
2022-08-20T05:40:11.933Z,101078.78
2022-08-20T05:42:38.624Z,101084.28
2022-08-20T05:45:11.222Z,101085.13
2022-08-20T05:47:42.848Z,101085.97
2022-08-20T05:50:10.711Z,101087.25
2022-08-20T05:52:46.436Z,101081.72
2022-08-20T05:55:13.413Z,101087.47
2022-08-20T05:57:40.609Z,101090.22
2022-08-20T06:00:08.692Z,101098.25
2022-08-20T06:02:53.870Z,101091.91
2022-08-20T06:05:20.450Z,101100.16
2022-08-20T06:07:46.933Z,101088.31
2022-08-20T06:10:13.738Z,101101.00
2022-08-20T06:12:40.149Z,101094.66
2022-08-20T06:15:07.154Z,101087.47
2022-08-20T06:17:39.579Z,101088.53
2022-08-20T06:20:07.517Z,101086.63
2022-08-20T06:22:34.221Z,101084.50
2022-08-20T06:25:01.671Z,101087.91
2022-08-20T06:27:29.159Z,101084.56
2022-08-20T06:29:55.631Z,101090.06
2022-08-20T06:32:28.815Z,101093.88
2022-08-20T06:34:59.006Z,101094.56
2022-08-20T06:37:30.902Z,101103.66
2022-08-20T06:40:00.864Z,101099.81
2022-08-20T06:42:27.319Z,101098.97
2022-08-20T06:44:53.845Z,101110.81
2022-08-20T06:47:20.971Z,101108.91
2022-08-20T06:49:48.527Z,101109.75
2022-08-20T06:52:18.099Z,101105.09
2022-08-20T06:54:45.164Z,101105.94
2022-08-20T06:57:11.641Z,101104.06
2022-08-20T06:59:38.217Z,101107.63
2022-08-20T07:02:05.728Z,101106.56
2022-08-20T07:04:32.251Z,101111.84
2022-08-20T07:06:59.444Z,101109.09
2022-08-20T07:09:26.526Z,101116.31
2022-08-20T07:11:53.156Z,101113.53
2022-08-20T07:14:19.852Z,101116.31
2022-08-20T07:16:49.591Z,101118.19
2022-08-20T07:19:16.042Z,101119.88
2022-08-20T07:21:42.619Z,101128.16
2022-08-20T07:24:10.021Z,101133.66
2022-08-20T07:26:36.677Z,101129.81
2022-08-20T07:29:03.454Z,101138.31
2022-08-20T07:31:48.361Z,101133.66
2022-08-20T07:34:14.976Z,101128.16
2022-08-20T07:36:41.509Z,101138.09
2022-08-20T07:39:08.068Z,101139.16
2022-08-20T07:41:36.049Z,101141.66
2022-08-20T07:44:02.688Z,101133.41
2022-08-20T07:46:31.638Z,101138.50
2022-08-20T07:48:58.698Z,101139.16
2022-08-20T07:51:25.146Z,101137.25
2022-08-20T07:53:52.018Z,101143.59
2022-08-20T07:56:24.161Z,101140.00
2022-08-20T07:58:52.464Z,101148.84
2022-08-20T08:01:30.483Z,101142.28
2022-08-20T08:03:57.811Z,101146.75
2022-08-20T08:06:30.039Z,101155.84
2022-08-20T08:09:03.703Z,101155.00
2022-08-20T08:11:31.562Z,101151.16
2022-08-20T08:13:59.325Z,101149.25
2022-08-20T08:16:25.834Z,101156.44
2022-08-20T08:18:56.693Z,101155.41
2022-08-20T08:21:23.882Z,101150.75
2022-08-20T08:23:50.424Z,101147.97
2022-08-20T08:26:18.977Z,101157.91
2022-08-20T08:28:46.207Z,101156.00
2022-08-20T08:31:12.803Z,101160.66
2022-08-20T08:33:40.766Z,101162.59
2022-08-20T08:36:09.816Z,101167.25
2022-08-20T08:38:37.852Z,101163.41
2022-08-20T08:41:24.573Z,101161.75
2022-08-20T08:43:55.622Z,101161.75
2022-08-20T08:46:27.388Z,101168.28
2022-08-20T08:48:57.758Z,101167.25
2022-08-20T08:51:48.611Z,101160.91
2022-08-20T08:54:20.027Z,101168.28
2022-08-20T08:56:50.156Z,101168.28
2022-08-20T08:59:17.872Z,101160.25
2022-08-20T09:01:54.915Z,101174.88
2022-08-20T09:04:24.213Z,101157.50
2022-08-20T09:06:53.523Z,101163.03
2022-08-20T09:09:23.010Z,101174.03
2022-08-20T09:11:51.372Z,101175.09
2022-08-20T09:14:18.401Z,101170.44
2022-08-20T09:16:53.051Z,101186.09
2022-08-20T09:19:20.110Z,101178.69
2022-08-20T09:21:46.678Z,101182.28
2022-08-20T09:24:13.284Z,101184.19
2022-08-20T09:26:39.775Z,101180.38
2022-08-20T09:29:06.315Z,101185.88
2022-08-20T09:31:32.933Z,101174.25
2022-08-20T09:33:59.570Z,101177.84
2022-08-20T09:36:31.620Z,101182.28
2022-08-20T09:38:59.482Z,101177.84
2022-08-20T09:41:25.951Z,101177.84
2022-08-20T09:43:52.639Z,101183.97
2022-08-20T09:46:19.164Z,101182.94
2022-08-20T09:48:45.646Z,101183.53
2022-08-20T09:51:12.556Z,101169.78
2022-08-20T09:53:39.106Z,101175.91
2022-08-20T09:56:05.726Z,101175.91
2022-08-20T09:58:35.328Z,101179.28
2022-08-20T10:01:05.950Z,101180.34
2022-08-20T10:03:41.978Z,101174.59
2022-08-20T10:06:08.739Z,101174.16
2022-08-20T10:08:35.298Z,101184.09
2022-08-20T10:11:01.774Z,101177.75
2022-08-20T10:13:28.314Z,101180.75
2022-08-20T10:15:54.883Z,101182.44
2022-08-20T10:18:21.367Z,101184.34
2022-08-20T10:20:47.923Z,101179.69
2022-08-20T10:23:14.572Z,101186.03
2022-08-20T10:25:42.139Z,101186.84
2022-08-20T10:28:08.697Z,101193.44
2022-08-20T10:30:35.538Z,101178.84
2022-08-20T10:33:02.045Z,101186.03
2022-08-20T10:35:28.681Z,101193.44
2022-08-20T10:37:55.367Z,101195.13
2022-08-20T10:40:22.174Z,101184.09
2022-08-20T10:42:48.741Z,101178.59
2022-08-20T10:45:16.150Z,101184.09
2022-08-20T10:47:42.753Z,101178.59
2022-08-20T10:50:10.525Z,101196.78
2022-08-20T10:52:37.261Z,101185.19
2022-08-20T10:55:04.849Z,101193.44
2022-08-20T10:57:31.626Z,101182.44
2022-08-20T10:59:58.996Z,101190.44
2022-08-20T11:02:25.958Z,101186.25
2022-08-20T11:04:53.186Z,101197.03
2022-08-20T11:07:55.565Z,101197.03
2022-08-20T11:10:13.957Z,101200.03
2022-08-20T11:12:41.037Z,101194.28
2022-08-20T11:15:10.881Z,101198.09
2022-08-20T11:17:39.910Z,101203.38
2022-08-20T11:20:07.953Z,101204.44
2022-08-20T11:22:34.599Z,101210.19
2022-08-20T11:25:01.065Z,101203.59
2022-08-20T11:27:29.164Z,101211.03
2022-08-20T11:29:55.739Z,101210.19
2022-08-20T11:32:22.278Z,101204.69
2022-08-20T11:34:48.969Z,101209.31
2022-08-20T11:37:16.550Z,101212.94
2022-08-20T11:39:43.142Z,101202.13
2022-08-20T11:42:09.998Z,101211.47
2022-08-20T11:44:36.500Z,101212.31
2022-08-20T11:47:04.233Z,101211.47
2022-08-20T11:49:31.193Z,101214.44
2022-08-20T11:51:57.734Z,101212.72
2022-08-20T11:54:24.294Z,101204.72
2022-08-20T11:56:50.838Z,101211.06
2022-08-20T11:59:18.297Z,101214.66
2022-08-20T12:02:02.309Z,101213.56
2022-08-20T12:04:30.022Z,101214.66
2022-08-20T12:07:07.408Z,101223.97
2022-08-20T12:09:35.890Z,101222.06
2022-08-20T12:12:06.809Z,101224.59
2022-08-20T12:14:33.442Z,101228.41
2022-08-20T12:17:09.833Z,101221.00
2022-08-20T12:19:40.319Z,101228.41
2022-08-20T12:22:24.812Z,101222.91
2022-08-20T12:24:52.862Z,101229.88
2022-08-20T12:27:23.159Z,101218.88
2022-08-20T12:29:53.130Z,101220.56
2022-08-20T12:32:20.333Z,101226.06
2022-08-20T12:34:46.874Z,101220.31
2022-08-20T12:37:16.122Z,101220.31
2022-08-20T12:39:44.038Z,101215.06
2022-08-20T12:42:11.005Z,101224.16
2022-08-20T12:44:38.218Z,101230.28
2022-08-20T12:47:08.053Z,101222.03
2022-08-20T12:49:34.666Z,101226.69
2022-08-20T12:52:01.341Z,101226.69
2022-08-20T12:54:27.830Z,101227.53
2022-08-20T12:56:54.401Z,101231.97
2022-08-20T12:59:25.848Z,101234.09
2022-08-20T13:01:53.106Z,101235.16
2022-08-20T13:04:19.755Z,101237.91
2022-08-20T13:06:46.563Z,101230.50
2022-08-20T13:09:13.336Z,101237.91
2022-08-20T13:11:39.913Z,101234.31
2022-08-20T13:14:06.794Z,101228.81
2022-08-20T13:16:33.363Z,101224.16
2022-08-20T13:19:02.001Z,101224.38
2022-08-20T13:21:37.425Z,101226.06
2022-08-20T13:24:04.113Z,101233.47
2022-08-20T13:26:30.629Z,101222.69
2022-08-20T13:28:57.091Z,101229.25
2022-08-20T13:31:24.253Z,101232.00
2022-08-20T13:33:50.701Z,101229.25
2022-08-20T13:36:17.277Z,101232.22
2022-08-20T13:38:43.807Z,101229.47
2022-08-20T13:41:10.363Z,101224.22
2022-08-20T13:43:36.909Z,101221.44
2022-08-20T13:46:04.942Z,101224.41
2022-08-20T13:48:31.514Z,101232.66
2022-08-20T13:50:58.014Z,101236.50
2022-08-20T13:53:24.727Z,101225.47
2022-08-20T13:55:51.392Z,101229.31
2022-08-20T13:58:18.315Z,101228.47
2022-08-20T14:00:45.576Z,101236.72
2022-08-20T14:03:12.418Z,101235.66
2022-08-20T14:05:40.762Z,101240.31
2022-08-20T14:08:08.570Z,101241.34
2022-08-20T14:10:35.662Z,101244.09
2022-08-20T14:13:03.331Z,101241.16
2022-08-20T14:15:30.001Z,101233.97
2022-08-20T14:17:57.516Z,101228.22
2022-08-20T14:20:25.985Z,101222.72
2022-08-20T14:22:56.020Z,101229.31
2022-08-20T14:25:23.177Z,101220.19
2022-08-20T14:27:50.707Z,101230.97
2022-08-20T14:30:18.847Z,101220.81
2022-08-20T14:32:45.608Z,101226.31
2022-08-20T14:35:12.362Z,101229.91
2022-08-20T14:37:40.354Z,101232.66
2022-08-20T14:40:09.211Z,101240.91
2022-08-20T14:42:36.120Z,101243.66
2022-08-20T14:45:04.348Z,101240.72
2022-08-20T14:47:35.703Z,101236.06
2022-08-20T14:50:05.304Z,101233.91
2022-08-20T14:52:36.350Z,101222.91
2022-08-20T14:55:07.225Z,101232.00
2022-08-20T14:57:33.676Z,101236.66
2022-08-20T15:00:00.197Z,101247.47
2022-08-20T15:02:26.713Z,101241.09
2022-08-20T15:04:54.462Z,101244.50
2022-08-20T15:07:23.974Z,101243.66
2022-08-20T15:09:50.510Z,101234.75
2022-08-20T15:12:16.929Z,101234.31
2022-08-20T15:14:43.442Z,101241.72
2022-08-20T15:17:25.575Z,101238.97
2022-08-20T15:19:52.074Z,101234.31
2022-08-20T15:22:19.151Z,101246.41
2022-08-20T15:24:45.634Z,101245.31
2022-08-20T15:27:13.488Z,101235.59
2022-08-20T15:29:40.258Z,101243.84
2022-08-20T15:32:08.531Z,101247.25
2022-08-20T15:34:39.405Z,101244.50
2022-08-20T15:37:07.221Z,101245.56
2022-08-20T15:39:33.743Z,101237.31
2022-08-20T15:42:00.242Z,101234.75
2022-08-20T15:44:26.689Z,101234.75
2022-08-20T15:46:53.212Z,101244.50
2022-08-20T15:49:19.802Z,101246.41
2022-08-20T15:51:47.742Z,101243.00
2022-08-20T15:54:18.487Z,101249.34
2022-08-20T15:57:01.741Z,101252.09
2022-08-20T15:59:49.272Z,101250.22
2022-08-20T16:02:28.147Z,101256.78
2022-08-20T16:05:13.424Z,101257.84
2022-08-20T16:07:49.046Z,101258.69
2022-08-20T16:10:23.616Z,101267.16
2022-08-20T16:12:52.557Z,101266.53
2022-08-20T16:15:24.068Z,101274.78
2022-08-20T16:17:54.478Z,101271.84
2022-08-20T16:20:22.261Z,101282.00
2022-08-20T16:22:49.182Z,101281.78
2022-08-20T16:25:22.726Z,101290.03
2022-08-20T16:28:00.120Z,101287.28
2022-08-20T16:30:34.183Z,101292.78
2022-08-20T16:33:08.091Z,101289.19
2022-08-20T16:35:37.506Z,101290.03
2022-08-20T16:38:10.823Z,101282.63
2022-08-20T16:40:44.645Z,101290.03
2022-08-20T16:43:23.616Z,101295.53
2022-08-20T16:46:04.587Z,101300.19
2022-08-20T16:48:35.618Z,101295.53
2022-08-20T16:51:05.257Z,101297.44
2022-08-20T16:53:32.233Z,101293.00
2022-08-20T16:55:58.757Z,101294.88
2022-08-20T16:58:25.951Z,101301.03
2022-08-20T17:01:08.856Z,101309.28
2022-08-20T17:03:40.038Z,101306.53
2022-08-20T17:06:15.804Z,101308.22
2022-08-20T17:08:46.585Z,101306.31
2022-08-20T17:11:14.622Z,101300.81
2022-08-20T17:13:45.662Z,101307.16
2022-08-20T17:16:15.209Z,101301.66
2022-08-20T17:18:46.054Z,101318.16
2022-08-20T17:21:12.447Z,101309.91
2022-08-20T17:23:55.201Z,101309.91
2022-08-20T17:26:29.474Z,101312.66
2022-08-20T17:28:57.526Z,101315.41
2022-08-20T17:31:39.012Z,101317.97
2022-08-20T17:34:05.850Z,101309.91
2022-08-20T17:36:34.255Z,101316.47
2022-08-20T17:39:01.341Z,101311.81
2022-08-20T17:41:27.745Z,101319.22
2022-08-20T17:43:58.501Z,101316.72
2022-08-20T17:46:26.094Z,101321.38
2022-08-20T17:48:52.810Z,101315.03
2022-08-20T17:51:26.586Z,101312.28
2022-08-20T17:53:56.406Z,101315.88
2022-08-20T17:56:26.117Z,101305.91
2022-08-20T17:59:10.451Z,101311.41
2022-08-20T18:01:37.400Z,101310.56
2022-08-20T18:04:03.939Z,101312.47
2022-08-20T18:06:33.207Z,101313.53
2022-08-20T18:08:59.682Z,101311.63
2022-08-20T18:11:29.848Z,101311.63
2022-08-20T18:14:05.170Z,101314.38
2022-08-20T18:16:42.394Z,101326.47
2022-08-20T18:19:15.105Z,101317.38
2022-08-20T18:22:00.068Z,101322.03
2022-08-20T18:24:30.526Z,101330.28
2022-08-20T18:27:00.877Z,101329.41
2022-08-20T18:29:33.968Z,101327.53
2022-08-20T18:32:02.413Z,101332.16
2022-08-20T18:34:29.585Z,101333.03
2022-08-20T18:37:07.365Z,101334.91
2022-08-20T18:39:35.904Z,101333.88
2022-08-20T18:42:02.508Z,101336.63
2022-08-20T18:44:34.295Z,101331.13
2022-08-20T18:47:04.571Z,101341.50
2022-08-20T18:49:32.819Z,101342.34
2022-08-20T18:52:08.923Z,101358.84
2022-08-20T18:54:35.833Z,101351.66
2022-08-20T18:57:04.201Z,101358.84
2022-08-20T18:59:32.357Z,101349.75
2022-08-20T19:01:58.968Z,101351.66
2022-08-20T19:04:31.984Z,101349.75
2022-08-20T19:07:06.016Z,101349.97
2022-08-20T19:09:53.748Z,101357.16
2022-08-20T19:12:38.347Z,101348.06
2022-08-20T19:15:07.305Z,101346.38
2022-08-20T19:17:39.986Z,101355.47
2022-08-20T19:20:10.487Z,101352.97
2022-08-20T19:22:38.610Z,101351.03
2022-08-20T19:25:05.430Z,101354.63
2022-08-20T19:27:32.070Z,101345.31
2022-08-20T19:29:58.622Z,101351.03
2022-08-20T19:32:28.517Z,101356.56
2022-08-20T19:35:01.427Z,101352.97
2022-08-20T19:37:39.961Z,101355.06
2022-08-20T19:40:26.546Z,101356.13
2022-08-20T19:42:56.391Z,101356.97
2022-08-20T19:45:46.118Z,101358.03
2022-08-20T19:48:12.662Z,101359.09
2022-08-20T19:50:43.390Z,101362.91
2022-08-20T19:53:19.160Z,101357.63
2022-08-20T19:56:00.454Z,101366.50
2022-08-20T19:58:27.875Z,101357.63
2022-08-20T20:00:55.413Z,101359.31
2022-08-20T20:03:21.849Z,101359.31
2022-08-20T20:05:53.643Z,101358.47
2022-08-20T20:08:20.914Z,101361.00
2022-08-20T20:10:53.770Z,101360.16
2022-08-20T20:13:21.405Z,101366.50
2022-08-20T20:15:50.670Z,101367.34
2022-08-20T20:18:17.162Z,101373.91
2022-08-20T20:20:57.474Z,101369.25
2022-08-20T20:23:45.805Z,101362.91
2022-08-20T20:26:16.691Z,101361.00
2022-08-20T20:28:47.401Z,101358.25
2022-08-20T20:31:20.721Z,101358.03
2022-08-20T20:33:51.123Z,101354.66
2022-08-20T20:36:18.795Z,101361.00
2022-08-20T20:38:53.049Z,101357.41
2022-08-20T20:41:22.317Z,101363.53
2022-08-20T20:43:57.882Z,101360.16
2022-08-20T20:46:25.541Z,101367.34
2022-08-20T20:48:56.069Z,101359.31
2022-08-20T20:51:25.240Z,101363.75
2022-08-20T20:53:55.001Z,101358.47
2022-08-20T20:56:42.184Z,101362.06
2022-08-20T20:59:09.560Z,101369.47
2022-08-20T21:01:48.658Z,101364.19
2022-08-20T21:04:21.265Z,101356.97
2022-08-20T21:06:48.068Z,101354.22
2022-08-20T21:09:14.766Z,101360.56
2022-08-20T21:11:41.257Z,101355.06
2022-08-20T21:14:07.798Z,101358.88
2022-08-20T21:16:34.364Z,101354.22
2022-08-20T21:19:01.520Z,101350.63
2022-08-20T21:21:28.026Z,101352.31
2022-08-20T21:23:54.483Z,101348.72
2022-08-20T21:26:20.986Z,101343.22
2022-08-20T21:28:47.482Z,101345.97
2022-08-20T21:31:14.360Z,101345.97
2022-08-20T21:33:40.794Z,101343.22
2022-08-20T21:36:07.508Z,101343.22
2022-08-20T21:38:33.949Z,101342.38
2022-08-20T21:41:00.511Z,101337.72
2022-08-20T21:43:29.272Z,101336.03
2022-08-20T21:46:01.362Z,101327.78
2022-08-20T21:48:28.936Z,101335.81
2022-08-20T21:50:55.467Z,101336.88
2022-08-20T21:53:22.855Z,101335.19
2022-08-20T21:55:49.313Z,101329.69
2022-08-20T21:58:16.588Z,101332.44
2022-08-20T22:00:45.226Z,101333.28
2022-08-20T22:03:14.194Z,101329.88
2022-08-20T22:05:41.170Z,101330.75
2022-08-20T22:08:07.777Z,101323.34
2022-08-20T22:10:34.323Z,101329.88
2022-08-20T22:13:00.937Z,101332.44
2022-08-20T22:15:27.414Z,101321.63
2022-08-20T22:17:53.935Z,101331.75
2022-08-20T22:20:20.522Z,101325.41
2022-08-20T22:22:47.083Z,101322.66
2022-08-20T22:25:13.619Z,101330.09
2022-08-20T22:27:41.609Z,101329.25
2022-08-20T22:30:08.548Z,101330.31
2022-08-20T22:32:51.384Z,101331.38
2022-08-20T22:35:18.857Z,101331.56
2022-08-20T22:37:45.422Z,101337.06
2022-08-20T22:40:12.030Z,101340.66
2022-08-20T22:42:38.714Z,101343.41
2022-08-20T22:45:05.370Z,101334.13
2022-08-20T22:47:41.194Z,101341.31
2022-08-20T22:50:07.996Z,101338.56
2022-08-20T22:52:37.237Z,101332.41
2022-08-20T22:55:05.801Z,101335.81
2022-08-20T22:57:32.636Z,101339.41
2022-08-20T23:00:00.917Z,101333.06
2022-08-20T23:02:27.723Z,101341.31
2022-08-20T23:04:54.386Z,101336.88
2022-08-20T23:07:20.958Z,101340.47
2022-08-20T23:09:47.516Z,101336.88
2022-08-20T23:12:13.982Z,101343.00
2022-08-20T23:14:40.553Z,101343.00
2022-08-20T23:17:13.069Z,101343.00
2022-08-20T23:19:40.650Z,101343.84
2022-08-20T23:22:07.202Z,101339.41
2022-08-20T23:24:34.138Z,101341.09
2022-08-20T23:27:00.848Z,101340.25
2022-08-20T23:29:27.694Z,101341.94
2022-08-20T23:31:55.118Z,101342.78
2022-08-20T23:34:21.597Z,101343.84
2022-08-20T23:36:48.413Z,101341.09
2022-08-20T23:39:14.809Z,101338.34
2022-08-20T23:41:47.481Z,101339.41
2022-08-20T23:44:25.464Z,101348.50
2022-08-20T23:46:57.589Z,101343.00
2022-08-20T23:49:24.073Z,101342.16
2022-08-20T23:51:50.608Z,101339.41
2022-08-20T23:54:17.150Z,101343.00
2022-08-20T23:56:43.660Z,101340.47
2022-08-20T23:59:10.198Z,101343.22
